createdAt,value
2019-04-29T00:02:36.783Z,10.50
2019-04-29T00:05:08.768Z,10.60
2019-04-29T00:07:39.535Z,10.40
2019-04-29T00:10:11.418Z,10.40
2019-04-29T00:12:41.879Z,10.40
2019-04-29T00:15:32.199Z,10.40
2019-04-29T00:18:06.702Z,10.40
2019-04-29T00:20:47.012Z,10.30
2019-04-29T00:23:17.363Z,10.40
2019-04-29T00:25:47.747Z,10.40
2019-04-29T00:28:18.244Z,10.40
2019-04-29T00:30:48.647Z,10.30
2019-04-29T00:33:19.132Z,10.30
2019-04-29T00:35:49.609Z,10.30
2019-04-29T00:38:41.776Z,10.30
2019-04-29T00:41:24.046Z,10.30
2019-04-29T00:43:56.823Z,10.30
2019-04-29T00:46:27.190Z,10.40
2019-04-29T00:49:00.474Z,10.30
2019-04-29T00:51:33.350Z,10.30
2019-04-29T00:54:12.388Z,10.30
2019-04-29T00:56:42.898Z,10.40
2019-04-29T00:59:13.208Z,10.40
2019-04-29T01:01:44.220Z,10.30
2019-04-29T01:04:14.877Z,10.40
2019-04-29T01:06:48.438Z,10.40
2019-04-29T01:09:20.445Z,10.40
2019-04-29T01:11:50.906Z,10.30
2019-04-29T01:14:21.332Z,10.30
2019-04-29T01:16:51.741Z,10.30
2019-04-29T01:19:22.443Z,10.30
2019-04-29T01:21:52.807Z,10.30
2019-04-29T01:24:23.207Z,10.30
2019-04-29T01:27:09.493Z,10.40
2019-04-29T01:29:39.934Z,10.30
2019-04-29T01:32:10.558Z,10.30
2019-04-29T01:35:05.809Z,10.20
2019-04-29T01:37:40.077Z,10.30
2019-04-29T01:40:41.813Z,10.30
2019-04-29T01:43:12.172Z,10.20
2019-04-29T01:45:42.622Z,10.20
2019-04-29T01:48:13.003Z,10.20
2019-04-29T01:50:43.477Z,10.10
2019-04-29T01:53:14.571Z,10.10
2019-04-29T01:55:44.913Z,10.20
2019-04-29T01:58:15.283Z,10.20
2019-04-29T02:00:45.642Z,10.10
2019-04-29T02:03:15.990Z,10.10
2019-04-29T02:05:46.532Z,10.20
2019-04-29T02:08:17.018Z,10.10
2019-04-29T02:10:47.716Z,10.10
2019-04-29T02:13:18.100Z,10.10
2019-04-29T02:15:48.442Z,10.20
2019-04-29T02:18:18.785Z,10.20
2019-04-29T02:20:49.095Z,10.10
2019-04-29T02:23:34.083Z,10.10
2019-04-29T02:26:04.426Z,10.10
2019-04-29T02:28:34.829Z,10.10
2019-04-29T02:31:22.782Z,10.10
2019-04-29T02:33:53.166Z,10.20
2019-04-29T02:36:24.925Z,10.30
2019-04-29T02:39:14.942Z,10.30
2019-04-29T02:41:53.464Z,10.30
2019-04-29T02:44:26.753Z,10.30
2019-04-29T02:46:58.416Z,10.20
2019-04-29T02:49:28.730Z,10.20
2019-04-29T02:51:59.075Z,10.20
2019-04-29T02:54:30.131Z,10.20
2019-04-29T02:57:08.616Z,10.20
2019-04-29T02:59:42.884Z,10.20
2019-04-29T03:02:30.360Z,10.20
2019-04-29T03:05:15.712Z,10.10
2019-04-29T03:07:46.092Z,10.10
2019-04-29T03:10:16.712Z,10.20
2019-04-29T03:12:47.224Z,10.10
2019-04-29T03:15:32.343Z,10.10
2019-04-29T03:18:03.030Z,10.10
2019-04-29T03:20:38.978Z,10.10
2019-04-29T03:23:19.657Z,10.10
2019-04-29T03:25:50.264Z,10.10
2019-04-29T03:28:20.867Z,10.10
2019-04-29T03:30:51.183Z,10.10
2019-04-29T03:33:23.021Z,10.00
2019-04-29T03:35:53.466Z,10.00
2019-04-29T03:38:24.145Z,10.00
2019-04-29T03:40:58.264Z,10.00
2019-04-29T03:43:28.534Z,10.00
2019-04-29T03:45:58.836Z,10.00
2019-04-29T03:48:29.158Z,10.00
2019-04-29T03:50:59.367Z,9.90
2019-04-29T03:53:29.578Z,9.90
2019-04-29T03:55:59.920Z,10.00
2019-04-29T03:58:30.370Z,9.90
2019-04-29T04:01:10.682Z,9.90
2019-04-29T04:03:45.382Z,9.90
2019-04-29T04:06:34.597Z,9.90
2019-04-29T04:09:22.902Z,9.80
2019-04-29T04:11:53.836Z,9.70
2019-04-29T04:14:24.498Z,9.70
2019-04-29T04:17:12.531Z,9.70
2019-04-29T04:19:43.561Z,9.80
2019-04-29T04:22:13.920Z,9.70
2019-04-29T04:24:44.359Z,9.60
2019-04-29T04:27:14.874Z,9.60
2019-04-29T04:29:45.406Z,9.60
2019-04-29T04:32:15.786Z,9.60
2019-04-29T04:34:47.011Z,9.60
2019-04-29T04:37:17.457Z,9.60
2019-04-29T04:39:48.075Z,9.70
2019-04-29T04:42:18.609Z,9.70
2019-04-29T04:44:49.426Z,9.70
2019-04-29T04:47:21.017Z,9.70
2019-04-29T04:49:51.600Z,9.70
2019-04-29T04:52:22.019Z,9.70
2019-04-29T04:54:54.104Z,9.70
2019-04-29T04:57:25.362Z,9.70
2019-04-29T04:59:55.813Z,9.80
2019-04-29T05:02:27.102Z,9.70
2019-04-29T05:05:00.831Z,9.80
2019-04-29T05:07:31.535Z,9.70
2019-04-29T05:10:02.018Z,9.70
2019-04-29T05:12:32.393Z,9.70
2019-04-29T05:15:02.751Z,9.80
2019-04-29T05:17:33.305Z,9.70
2019-04-29T05:20:03.901Z,9.80
2019-04-29T05:22:34.457Z,9.90
2019-04-29T05:25:05.261Z,9.90
2019-04-29T05:27:35.746Z,9.90
2019-04-29T05:30:06.893Z,9.90
2019-04-29T05:32:39.419Z,9.90
2019-04-29T05:35:12.913Z,10.10
2019-04-29T05:37:51.463Z,10.10
2019-04-29T05:40:38.462Z,10.10
2019-04-29T05:43:12.125Z,10.20
2019-04-29T05:45:49.837Z,10.20
2019-04-29T05:48:20.824Z,10.10
2019-04-29T05:50:57.347Z,10.20
2019-04-29T05:53:38.288Z,10.20
2019-04-29T05:56:11.394Z,10.20
2019-04-29T05:58:41.905Z,10.30
2019-04-29T06:01:17.337Z,10.20
2019-04-29T06:03:48.020Z,10.20
2019-04-29T06:06:18.676Z,10.30
2019-04-29T06:08:49.300Z,10.40
2019-04-29T06:11:23.082Z,10.30
2019-04-29T06:13:52.042Z,10.30
2019-04-29T06:16:22.777Z,10.40
2019-04-29T06:18:59.681Z,10.40
2019-04-29T06:21:25.474Z,10.20
2019-04-29T06:23:59.358Z,10.40
2019-04-29T06:26:28.141Z,10.50
2019-04-29T06:28:58.724Z,10.50
2019-04-29T06:31:29.568Z,10.50
2019-04-29T06:34:00.541Z,10.50
2019-04-29T06:36:32.115Z,10.60
2019-04-29T06:39:03.020Z,10.50
2019-04-29T06:41:33.997Z,10.60
2019-04-29T06:44:06.654Z,10.60
2019-04-29T06:46:36.901Z,10.70
2019-04-29T06:49:10.632Z,10.80
2019-04-29T06:51:39.605Z,10.80
2019-04-29T06:54:10.341Z,10.70
2019-04-29T06:56:41.001Z,10.80
2019-04-29T06:59:13.645Z,10.90
2019-04-29T07:01:43.979Z,10.90
2019-04-29T07:04:14.486Z,10.90
2019-04-29T07:06:56.655Z,11.00
2019-04-29T07:09:17.032Z,11.00
2019-04-29T07:11:47.542Z,11.10
2019-04-29T07:14:21.968Z,10.90
2019-04-29T07:16:52.575Z,11.00
2019-04-29T07:19:26.725Z,10.70
2019-04-29T07:21:56.602Z,11.00
2019-04-29T07:24:27.098Z,10.80
2019-04-29T07:27:02.711Z,11.10
2019-04-29T07:29:32.928Z,11.10
2019-04-29T07:32:04.792Z,11.10
2019-04-29T07:34:39.704Z,11.20
2019-04-29T07:37:10.310Z,11.00
2019-04-29T07:39:40.948Z,11.00
2019-04-29T07:42:11.562Z,11.00
2019-04-29T07:45:03.564Z,11.10
2019-04-29T07:47:35.126Z,11.10
2019-04-29T07:50:06.728Z,10.90
2019-04-29T07:52:40.483Z,10.80
2019-04-29T07:55:11.163Z,10.90
2019-04-29T07:57:41.663Z,10.90
2019-04-29T08:00:14.478Z,10.80
2019-04-29T08:02:45.346Z,10.90
2019-04-29T08:05:15.885Z,10.90
2019-04-29T08:07:47.687Z,10.90
2019-04-29T08:10:23.840Z,10.80
2019-04-29T08:12:51.377Z,10.90
2019-04-29T08:15:22.267Z,10.80
2019-04-29T08:18:05.897Z,11.00
2019-04-29T08:20:25.954Z,11.00
2019-04-29T08:22:58.383Z,10.80
2019-04-29T08:25:28.799Z,10.80
2019-04-29T08:27:59.665Z,10.80
2019-04-29T08:30:30.491Z,10.90
2019-04-29T08:33:01.320Z,10.90
2019-04-29T08:35:32.620Z,10.90
2019-04-29T08:38:04.211Z,10.80
2019-04-29T08:40:34.657Z,10.80
2019-04-29T08:43:36.199Z,10.80
2019-04-29T08:46:09.864Z,10.70
2019-04-29T08:48:40.536Z,10.60
2019-04-29T08:51:11.525Z,10.60
2019-04-29T08:53:41.979Z,10.60
2019-04-29T08:56:12.535Z,10.60
2019-04-29T08:58:44.262Z,10.80
2019-04-29T09:01:15.502Z,10.70
2019-04-29T09:03:45.993Z,10.80
2019-04-29T09:06:17.053Z,10.80
2019-04-29T09:08:56.201Z,10.70
2019-04-29T09:11:19.587Z,10.80
2019-04-29T09:13:50.115Z,10.60
2019-04-29T09:16:20.713Z,10.70
2019-04-29T09:18:51.332Z,10.80
2019-04-29T09:21:21.979Z,10.80
2019-04-29T09:23:52.755Z,10.80
2019-04-29T09:26:32.582Z,10.90
2019-04-29T09:29:22.441Z,11.00
2019-04-29T09:31:53.696Z,11.00
2019-04-29T09:34:24.637Z,11.00
2019-04-29T09:36:56.404Z,11.00
2019-04-29T09:39:27.160Z,11.00
2019-04-29T09:42:13.099Z,10.90
2019-04-29T09:45:08.568Z,10.90
2019-04-29T09:47:39.236Z,10.90
2019-04-29T09:50:09.868Z,10.80
2019-04-29T09:52:40.502Z,10.90
2019-04-29T09:55:13.130Z,10.90
2019-04-29T09:57:44.264Z,11.00
2019-04-29T10:00:25.750Z,11.00
2019-04-29T10:03:03.898Z,10.90
2019-04-29T10:05:43.531Z,11.00
2019-04-29T10:08:14.152Z,11.10
2019-04-29T10:10:45.368Z,11.10
2019-04-29T10:13:16.075Z,11.10
2019-04-29T10:15:55.927Z,11.20
2019-04-29T10:18:33.776Z,11.20
2019-04-29T10:21:09.617Z,11.30
2019-04-29T10:23:40.332Z,11.30
2019-04-29T10:26:10.993Z,11.30
2019-04-29T10:28:52.803Z,11.40
2019-04-29T10:31:23.385Z,11.40
2019-04-29T10:33:55.119Z,11.40
2019-04-29T10:36:26.414Z,11.40
2019-04-29T10:38:59.903Z,11.30
2019-04-29T10:41:36.161Z,11.40
2019-04-29T10:44:26.268Z,11.40
2019-04-29T10:47:18.241Z,11.20
2019-04-29T10:49:56.313Z,11.40
2019-04-29T10:52:27.149Z,11.50
2019-04-29T10:54:58.081Z,11.50
2019-04-29T10:57:29.351Z,11.60
2019-04-29T11:00:07.443Z,11.60
2019-04-29T11:02:44.683Z,11.60
2019-04-29T11:05:31.582Z,11.60
2019-04-29T11:08:33.777Z,11.80
2019-04-29T11:11:03.891Z,11.70
2019-04-29T11:13:34.400Z,11.80
2019-04-29T11:16:05.520Z,11.70
2019-04-29T11:18:36.274Z,11.60
2019-04-29T11:21:08.960Z,11.70
2019-04-29T11:23:45.952Z,11.60
2019-04-29T11:26:47.281Z,11.70
2019-04-29T11:29:22.183Z,11.70
2019-04-29T11:31:54.012Z,11.60
2019-04-29T11:34:33.256Z,11.70
2019-04-29T11:37:05.413Z,11.80
2019-04-29T11:39:36.566Z,11.90
2019-04-29T11:42:11.277Z,11.60
2019-04-29T11:44:41.886Z,11.90
2019-04-29T11:47:13.035Z,11.80
2019-04-29T11:49:49.833Z,11.90
2019-04-29T11:52:23.632Z,11.90
2019-04-29T11:54:52.815Z,11.80
2019-04-29T11:57:40.699Z,11.90
2019-04-29T12:00:31.655Z,12.00
2019-04-29T12:03:05.317Z,11.90
2019-04-29T12:05:45.016Z,11.90
2019-04-29T12:08:18.307Z,11.90
2019-04-29T12:11:05.964Z,11.90
2019-04-29T12:13:28.628Z,12.00
2019-04-29T12:16:10.156Z,11.90
2019-04-29T12:18:49.340Z,11.90
2019-04-29T12:21:26.621Z,11.90
2019-04-29T12:23:59.616Z,11.90
2019-04-29T12:26:35.544Z,12.00
2019-04-29T12:29:03.262Z,12.00
2019-04-29T12:31:55.828Z,12.00
2019-04-29T12:34:43.868Z,12.20
2019-04-29T12:37:45.807Z,12.20
2019-04-29T12:40:49.779Z,12.10
2019-04-29T12:43:37.636Z,12.00
2019-04-29T12:46:15.753Z,12.00
2019-04-29T12:48:46.465Z,12.00
2019-04-29T12:51:17.336Z,12.10
2019-04-29T12:53:51.389Z,12.10
2019-04-29T12:56:32.885Z,12.10
2019-04-29T12:59:04.953Z,12.20
2019-04-29T13:02:01.266Z,12.10
2019-04-29T13:04:51.552Z,12.10
2019-04-29T13:07:37.084Z,12.20
2019-04-29T13:10:32.133Z,12.20
2019-04-29T13:13:03.227Z,12.20
2019-04-29T13:16:04.950Z,12.20
2019-04-29T13:18:48.816Z,12.00
2019-04-29T13:21:22.189Z,12.20
2019-04-29T13:23:59.499Z,12.20
2019-04-29T13:26:28.328Z,12.10
2019-04-29T13:29:01.106Z,12.00
2019-04-29T13:31:38.418Z,12.00
2019-04-29T13:34:22.373Z,12.00
2019-04-29T13:36:37.333Z,11.90
2019-04-29T13:39:09.558Z,11.90
2019-04-29T13:41:56.389Z,11.90
2019-04-29T13:44:13.866Z,11.90
2019-04-29T13:47:14.683Z,12.00
2019-04-29T13:49:49.512Z,11.90
2019-04-29T13:52:24.049Z,12.00
2019-04-29T13:54:54.752Z,11.90
2019-04-29T13:57:25.659Z,11.90
2019-04-29T14:00:24.577Z,12.10
2019-04-29T14:03:01.071Z,12.00
2019-04-29T14:05:32.518Z,12.20
2019-04-29T14:08:04.457Z,12.00
2019-04-29T14:10:37.613Z,12.10
2019-04-29T14:13:15.164Z,12.20
2019-04-29T14:15:41.061Z,12.30
2019-04-29T14:18:13.613Z,12.30
2019-04-29T14:20:47.189Z,12.30
2019-04-29T14:23:17.417Z,12.40
2019-04-29T14:25:48.633Z,12.30
2019-04-29T14:28:19.514Z,12.40
2019-04-29T14:30:55.765Z,12.40
2019-04-29T14:33:31.155Z,12.30
2019-04-29T14:36:08.011Z,12.40
2019-04-29T14:38:40.591Z,12.40
2019-04-29T14:41:14.378Z,12.40
2019-04-29T14:43:59.644Z,12.50
2019-04-29T14:46:55.736Z,12.60
2019-04-29T14:49:28.250Z,12.70
2019-04-29T14:51:58.972Z,12.70
2019-04-29T14:54:31.009Z,12.70
2019-04-29T14:57:08.958Z,12.80
2019-04-29T14:59:38.804Z,12.80
2019-04-29T15:02:18.874Z,12.80
2019-04-29T15:04:49.602Z,12.80
2019-04-29T15:07:20.771Z,12.70
2019-04-29T15:10:00.772Z,12.80
2019-04-29T15:13:11.476Z,12.80
2019-04-29T15:15:48.175Z,12.90
2019-04-29T15:18:46.192Z,12.80
2019-04-29T15:21:08.616Z,12.90
2019-04-29T15:23:39.879Z,12.80
2019-04-29T15:26:11.001Z,12.90
2019-04-29T15:28:54.041Z,12.80
2019-04-29T15:31:25.944Z,12.80
2019-04-29T15:33:56.773Z,12.80
2019-04-29T15:36:30.774Z,12.90
2019-04-29T15:39:09.285Z,12.80
2019-04-29T15:41:34.919Z,12.80
2019-04-29T15:44:08.006Z,12.80
2019-04-29T15:46:46.170Z,12.90
2019-04-29T15:49:11.174Z,12.90
2019-04-29T15:51:44.092Z,12.90
2019-04-29T15:54:16.141Z,12.90
2019-04-29T15:56:47.131Z,12.90
2019-04-29T15:59:20.438Z,12.80
2019-04-29T16:01:51.130Z,12.90
2019-04-29T16:04:31.873Z,13.10
2019-04-29T16:07:19.348Z,13.20
2019-04-29T16:10:21.943Z,13.40
2019-04-29T16:12:55.992Z,13.50
2019-04-29T16:15:27.405Z,13.50
2019-04-29T16:17:58.801Z,13.70
2019-04-29T16:20:29.970Z,13.80
2019-04-29T16:23:02.194Z,13.90
2019-04-29T16:25:39.885Z,14.00
2019-04-29T16:28:06.696Z,14.00
2019-04-29T16:30:38.329Z,14.00
2019-04-29T16:33:14.340Z,14.00
2019-04-29T16:35:42.706Z,13.90
2019-04-29T16:38:14.320Z,13.90
2019-04-29T16:40:56.558Z,14.00
2019-04-29T16:43:42.244Z,13.70
2019-04-29T16:46:16.477Z,13.50
2019-04-29T16:48:47.233Z,13.50
2019-04-29T16:51:17.885Z,13.50
2019-04-29T16:53:48.816Z,13.40
2019-04-29T16:56:19.807Z,13.30
2019-04-29T16:58:50.681Z,13.40
2019-04-29T17:01:21.474Z,13.30
2019-04-29T17:03:52.264Z,13.10
2019-04-29T17:06:23.194Z,13.20
2019-04-29T17:09:09.496Z,13.20
2019-04-29T17:11:40.557Z,13.20
2019-04-29T17:14:13.186Z,13.20
2019-04-29T17:16:43.907Z,13.10
2019-04-29T17:19:14.795Z,13.10
2019-04-29T17:21:48.176Z,13.10
2019-04-29T17:24:18.913Z,13.20
2019-04-29T17:26:57.615Z,13.10
2019-04-29T17:30:07.699Z,13.20
2019-04-29T17:33:00.729Z,13.00
2019-04-29T17:35:34.372Z,13.10
2019-04-29T17:38:04.865Z,13.00
2019-04-29T17:40:50.488Z,13.00
2019-04-29T17:43:17.242Z,13.00
2019-04-29T17:45:56.872Z,12.90
2019-04-29T17:48:40.687Z,13.00
2019-04-29T17:51:13.429Z,13.10
2019-04-29T17:53:50.830Z,13.00
2019-04-29T17:56:39.751Z,13.00
2019-04-29T17:59:30.711Z,13.10
2019-04-29T18:02:21.712Z,13.00
2019-04-29T18:05:08.989Z,13.00
2019-04-29T18:07:48.333Z,13.10
2019-04-29T18:10:29.546Z,13.00
2019-04-29T18:13:00.639Z,13.10
2019-04-29T18:15:42.424Z,13.10
2019-04-29T18:18:17.010Z,13.00
2019-04-29T18:21:10.251Z,13.00
2019-04-29T18:24:05.636Z,13.10
2019-04-29T18:26:49.934Z,13.10
2019-04-29T18:29:21.693Z,13.20
2019-04-29T18:31:52.345Z,13.10
2019-04-29T18:34:29.301Z,13.10
2019-04-29T18:37:00.358Z,13.10
2019-04-29T18:39:31.641Z,13.10
2019-04-29T18:42:03.239Z,13.10
2019-04-29T18:44:40.534Z,13.10
2019-04-29T18:47:20.032Z,13.20
2019-04-29T18:49:42.983Z,13.20
2019-04-29T18:52:23.822Z,13.20
2019-04-29T18:54:45.325Z,13.20
2019-04-29T18:57:27.454Z,13.20
2019-04-29T18:59:47.688Z,13.20
2019-04-29T19:02:18.050Z,13.20
2019-04-29T19:04:54.934Z,13.20
2019-04-29T19:07:25.509Z,13.20
2019-04-29T19:09:56.212Z,13.20
2019-04-29T19:12:26.474Z,13.10
2019-04-29T19:14:57.988Z,13.20
2019-04-29T19:17:30.794Z,13.20
2019-04-29T19:20:00.843Z,13.20
2019-04-29T19:22:31.305Z,13.10
2019-04-29T19:25:02.648Z,13.20
2019-04-29T19:27:39.752Z,13.10
2019-04-29T19:30:09.122Z,13.20
2019-04-29T19:32:39.553Z,13.10
2019-04-29T19:35:11.318Z,13.20
2019-04-29T19:37:41.731Z,13.10
2019-04-29T19:40:12.467Z,13.10
2019-04-29T19:42:42.835Z,13.20
2019-04-29T19:45:15.342Z,13.30
2019-04-29T19:47:47.444Z,13.20
2019-04-29T19:50:19.506Z,13.10
2019-04-29T19:52:49.492Z,13.10
2019-04-29T19:55:19.925Z,13.20
2019-04-29T19:57:52.310Z,13.00
2019-04-29T20:00:28.288Z,13.00
2019-04-29T20:02:56.887Z,13.10
2019-04-29T20:05:39.040Z,13.00
2019-04-29T20:08:07.986Z,13.00
2019-04-29T20:10:46.313Z,13.00
2019-04-29T20:13:13.695Z,13.10
2019-04-29T20:16:10.924Z,13.10
2019-04-29T20:18:58.825Z,13.10
2019-04-29T20:21:28.177Z,13.10
2019-04-29T20:23:55.193Z,13.30
2019-04-29T20:26:29.670Z,13.40
2019-04-29T20:28:58.034Z,13.40
2019-04-29T20:31:28.842Z,13.50
2019-04-29T20:34:01.463Z,13.50
2019-04-29T20:36:39.501Z,13.50
2019-04-29T20:39:06.952Z,13.50
2019-04-29T20:41:41.310Z,13.50
2019-04-29T20:44:10.758Z,13.50
2019-04-29T20:47:00.607Z,13.50
2019-04-29T20:49:13.688Z,13.60
2019-04-29T20:51:52.204Z,13.50
2019-04-29T20:54:25.408Z,13.60
2019-04-29T20:57:03.006Z,13.60
2019-04-29T20:59:28.203Z,13.70
2019-04-29T21:02:12.157Z,13.70
2019-04-29T21:04:39.259Z,13.70
2019-04-29T21:07:07.019Z,13.60
2019-04-29T21:09:37.561Z,13.60
2019-04-29T21:12:38.183Z,13.50
2019-04-29T21:15:14.773Z,13.60
2019-04-29T21:17:45.402Z,13.60
2019-04-29T21:20:16.046Z,13.60
2019-04-29T21:22:46.446Z,13.50
2019-04-29T21:25:16.898Z,13.50
2019-04-29T21:27:48.581Z,13.50
2019-04-29T21:30:19.283Z,13.50
2019-04-29T21:32:49.728Z,13.40
2019-04-29T21:35:29.846Z,13.30
2019-04-29T21:38:22.342Z,13.30
2019-04-29T21:40:58.460Z,13.30
2019-04-29T21:43:30.726Z,13.20
2019-04-29T21:46:01.153Z,13.30
2019-04-29T21:48:33.659Z,13.20
2019-04-29T21:51:06.833Z,13.20
2019-04-29T21:53:40.020Z,13.20
2019-04-29T21:56:09.372Z,13.10
2019-04-29T21:58:40.360Z,13.20
2019-04-29T22:01:11.354Z,13.10
2019-04-29T22:03:42.230Z,13.00
2019-04-29T22:06:12.814Z,12.90
2019-04-29T22:08:45.108Z,12.90
2019-04-29T22:11:15.519Z,12.90
2019-04-29T22:13:47.779Z,13.00
2019-04-29T22:16:18.668Z,13.00
2019-04-29T22:18:52.101Z,12.80
2019-04-29T22:21:22.421Z,12.80
2019-04-29T22:23:55.265Z,12.90
2019-04-29T22:26:26.897Z,12.70
2019-04-29T22:29:01.675Z,12.70
2019-04-29T22:31:33.889Z,12.60
2019-04-29T22:34:05.524Z,12.60
2019-04-29T22:36:37.030Z,12.50
2019-04-29T22:39:07.454Z,12.60
2019-04-29T22:41:56.776Z,12.40
2019-04-29T22:44:27.293Z,12.40
2019-04-29T22:46:57.730Z,12.40
2019-04-29T22:49:29.280Z,12.30
2019-04-29T22:51:59.802Z,12.20
2019-04-29T22:54:30.184Z,12.10
2019-04-29T22:57:00.635Z,12.20
2019-04-29T22:59:31.113Z,12.10
2019-04-29T23:02:01.572Z,12.10
2019-04-29T23:04:31.988Z,12.00
2019-04-29T23:07:02.774Z,11.90
2019-04-29T23:09:33.207Z,11.90
2019-04-29T23:12:05.457Z,11.90
2019-04-29T23:14:36.154Z,11.90
2019-04-29T23:17:12.151Z,11.90
2019-04-29T23:19:38.638Z,11.90
2019-04-29T23:22:34.767Z,11.80
2019-04-29T23:25:16.629Z,11.80
2019-04-29T23:27:48.423Z,11.70
2019-04-29T23:30:24.611Z,11.70
2019-04-29T23:32:56.122Z,11.50
2019-04-29T23:35:26.784Z,11.50
2019-04-29T23:38:03.866Z,11.40
2019-04-29T23:40:29.414Z,11.30
2019-04-29T23:42:59.819Z,11.20
2019-04-29T23:45:31.693Z,11.20
2019-04-29T23:48:02.100Z,11.30
2019-04-29T23:50:32.565Z,11.20
2019-04-29T23:53:02.899Z,11.10
2019-04-29T23:55:36.495Z,11.00
2019-04-29T23:58:23.537Z,10.80
